Prince Albert Glass Field
CYPA : now visible

Airfield :











YOU CAN JOIN US ON...

 
LOGIN :

Register | Disclaimer

   EN    FR    IT 

 









Legend :    VFR   Marginal VFR   IFR   Intensive IFR   Very Intensive IFR
Visi :
Ceiling :
>= 8 km
>= 3000ft
5 to 8 km
1000 to 3000 ft
1500m to 5 km
500 to 1000 ft
800 to 1500m
200 to 500 ft
< 800m
< 200 ft
Symbols :   Thunderstorms  Fog  Heavy snow  Heavy precipitations  Wind > 20 kt






- Airport Elevation : 1405 ft
- IATA code : YPA


CYPA - Prince Albert Glass Field

CURRENT METAR :
  • 071800Z 26009KT 15SM FEW019 FEW075 BKN270 M01/M06 A2958 RMK SC1AC1CI3 SLP044

EXPIRED METARs :
  • 071700Z 22008KT 15SM FEW015 FEW040 FEW075 BKN270 M04/M05 A2958 RMK CF1SC1AC1CI4 CF TR SLP046
  • 071600Z 16003KT 15SM FEW040 SCT075 SCT270 M09/M10 A2956 RMK SC1AC2CI1 SLP042

TAF TAF CYPA
Valid from the 07 at 13:00 until the 08 at 01:00 UTC


071238Z 0713/0801 24005KT P6SM SCT090
TEMPO 0713/0718 5SM -SHSN SCT020 BKN060
FM071800 26010KT P6SM BKN025 BKN080
TEMPO 0718/0724 P6SM VCSH BKN020 BKN080
BECMG 0719/0721 29015G25KT
FM080000 29012KT P6SM OVC030
TEMPO 0800/0801 5SM -SHSN OVC020 RMK NXT FCST BY 071900Z



MET'MAP, your aeronautical weather chart ! - Copyright ORBIFLY December 2007 - Disclaimer

ORBIFLY MET'MAP TEAM :

Programming & Development : Alexandra Zaïnal
Concept & original design : Baudouin d'Aumeries
Assistance for programming : Marc-Olivier Méhu
Technical & hardware support : Manuel Goepfert

Contact : metmap@orbifly.com




SOURCES & CREDITS :

   NOAA       Earth
Advisory